Time;durP1;ratioP1;P1;durP2;ratioP2;P2;SDS_P1;SDS_P2;PMS_P1;PMS_P2;Temp;Humidity;BMP_temperature;BMP_pressure;BME280_temperature;BME280_humidity;BME280_pressure;Samples;Min_cycle;Max_cycle;Signal;HPM_P1;HPM_P2
2022/03/03 00:00:54;;;;;;;17.25;10.90;;;;;;;-3.41;100.00;93129.84;2104167;28;20051;-79
2022/03/03 00:01:55;;;;;;;17.10;10.65;;;;;;;-3.41;100.00;93127.25;2105438;28;20598;-81
2022/03/03 00:02:56;;;;;;;17.60;11.05;;;;;;;-3.39;100.00;93132.13;2100377;28;20024;-79
2022/03/03 00:03:56;;;;;;;19.27;11.70;;;;;;;-3.41;100.00;93131.72;2096005;28;20115;-78
2022/03/03 00:04:57;;;;;;;19.73;11.40;;;;;;;-3.45;100.00;93129.00;2097546;28;20066;-78
2022/03/03 00:05:58;;;;;;;18.88;10.73;;;;;;;-3.40;100.00;93125.41;2113822;28;21062;-78
2022/03/03 00:06:59;;;;;;;16.63;10.45;;;;;;;-3.39;100.00;93132.13;2114394;27;20036;-80
2022/03/03 00:08:00;;;;;;;22.48;11.77;;;;;;;-3.45;100.00;93126.38;2110339;28;20054;-80
2022/03/03 00:09:03;;;;;;;16.45;11.30;;;;;;;-3.58;100.00;93115.16;2101420;28;20075;-79
2022/03/03 00:10:05;;;;;;;16.73;10.95;;;;;;;-3.58;100.00;93125.59;2097770;28;20024;-78
2022/03/03 00:11:06;;;;;;;19.23;11.45;;;;;;;-3.48;100.00;93128.88;2109945;28;20098;-78
2022/03/03 00:12:08;;;;;;;14.10;10.38;;;;;;;-3.47;100.00;93125.94;2088828;28;20473;-78
2022/03/03 00:13:09;;;;;;;17.75;11.43;;;;;;;-3.57;100.00;93127.13;2081256;28;20029;-81
2022/03/03 00:14:09;;;;;;;15.30;10.60;;;;;;;-3.65;100.00;93128.00;2100596;28;20028;-81
2022/03/03 00:15:10;;;;;;;18.05;11.75;;;;;;;-3.65;100.00;93130.59;2092833;28;20021;-79
2022/03/03 00:16:11;;;;;;;14.73;11.23;;;;;;;-3.62;100.00;93122.13;2105366;28;20032;-80
2022/03/03 00:17:13;;;;;;;15.88;11.07;;;;;;;-3.61;100.00;93130.72;2111679;28;20012;-80
2022/03/03 00:18:14;;;;;;;17.30;11.27;;;;;;;-3.61;100.00;93120.28;2091171;28;20016;-80
2022/03/03 00:19:14;;;;;;;15.25;10.90;;;;;;;-3.47;100.00;93130.41;2096705;28;20020;-79
2022/03/03 00:20:16;;;;;;;18.33;11.77;;;;;;;-3.66;100.00;93129.09;2091201;28;20505;-77
2022/03/03 00:21:17;;;;;;;15.40;11.48;;;;;;;-3.49;100.00;93122.88;2103599;28;20016;-79
2022/03/03 00:22:18;;;;;;;13.77;9.98;;;;;;;-3.39;100.00;93121.69;2105657;28;20028;-80
2022/03/03 00:23:19;;;;;;;18.90;11.40;;;;;;;-3.52;100.00;93120.91;2105318;28;20028;-82
2022/03/03 00:24:20;;;;;;;14.15;10.27;;;;;;;-3.47;100.00;93119.94;2102903;28;20096;-81
2022/03/03 00:25:23;;;;;;;14.23;10.55;;;;;;;-3.57;100.00;93116.69;2093248;28;20017;-79
2022/03/03 00:26:24;;;;;;;17.33;11.85;;;;;;;-3.66;100.00;93116.03;2100017;28;20016;-77
2022/03/03 00:27:25;;;;;;;17.58;11.40;;;;;;;-3.69;100.00;93118.53;2109471;28;20028;-79
2022/03/03 00:28:26;;;;;;;16.30;10.73;;;;;;;-3.72;100.00;93114.72;2109862;28;20461;-79
2022/03/03 00:29:27;;;;;;;16.33;10.35;;;;;;;-3.73;100.00;93125.47;2105212;28;20016;-80
2022/03/03 00:30:28;;;;;;;15.65;11.02;;;;;;;-3.73;100.00;93123.66;2090960;28;20104;-78
2022/03/03 00:31:29;;;;;;;15.18;11.20;;;;;;;-3.70;100.00;93107.31;2092336;28;20029;-79
2022/03/03 00:32:30;;;;;;;17.35;11.23;;;;;;;-3.66;100.00;93112.66;2095030;28;20047;-79
2022/03/03 00:33:31;;;;;;;15.10;10.30;;;;;;;-3.72;100.00;93112.13;2097027;28;20045;-80
2022/03/03 00:34:32;;;;;;;15.25;11.15;;;;;;;-3.68;100.00;93117.47;2101208;28;20469;-79
2022/03/03 00:35:33;;;;;;;15.40;10.77;;;;;;;-3.76;100.00;93110.47;2109620;28;20077;-78
2022/03/03 00:36:34;;;;;;;14.90;11.00;;;;;;;-3.66;100.00;93110.81;2102012;28;20368;-80
2022/03/03 00:37:35;;;;;;;11.98;9.63;;;;;;;-3.68;100.00;93109.63;2099386;28;20040;-78
2022/03/03 00:38:36;;;;;;;16.02;10.45;;;;;;;-3.77;100.00;93117.56;2110516;28;20020;-79
2022/03/03 00:39:37;;;;;;;15.05;10.18;;;;;;;-3.74;100.00;93116.13;2105443;28;20019;-80
2022/03/03 00:40:38;;;;;;;14.70;10.90;;;;;;;-3.69;100.00;93111.44;2088857;28;20096;-79
2022/03/03 00:41:39;;;;;;;15.18;10.63;;;;;;;-3.60;100.00;93111.34;2097686;28;20579;-79
2022/03/03 00:42:40;;;;;;;16.85;10.48;;;;;;;-3.70;100.00;93112.53;2094644;28;20028;-79
2022/03/03 00:43:41;;;;;;;17.45;10.43;;;;;;;-3.80;100.00;93105.91;2103477;28;20077;-81
2022/03/03 00:44:42;;;;;;;14.65;10.52;;;;;;;-3.86;100.00;93109.06;2102923;28;20031;-81
2022/03/03 00:45:43;;;;;;;14.82;10.52;;;;;;;-3.79;100.00;93114.50;2104380;28;20028;-80
2022/03/03 00:46:44;;;;;;;14.40;10.90;;;;;;;-3.77;100.00;93109.72;2090920;28;20418;-78
2022/03/03 00:47:45;;;;;;;17.13;10.85;;;;;;;-3.84;100.00;93110.25;2089358;28;20048;-79
2022/03/03 00:48:46;;;;;;;13.40;10.15;;;;;;;-3.87;100.00;93112.75;2097052;28;20779;-79
2022/03/03 00:49:47;;;;;;;15.00;10.70;;;;;;;-3.83;100.00;93108.41;2112053;28;20039;-78
2022/03/03 00:50:48;;;;;;;16.25;10.75;;;;;;;-3.93;100.00;93114.81;2114682;28;20019;-79
2022/03/03 00:51:49;;;;;;;17.20;10.85;;;;;;;-3.81;100.00;93109.59;2111751;28;20500;-79
2022/03/03 00:52:50;;;;;;;17.85;12.30;;;;;;;-3.81;100.00;93111.47;2096844;28;20062;-80
2022/03/03 00:53:51;;;;;;;14.45;10.18;;;;;;;-3.83;100.00;93116.22;2096045;28;20789;-80
2022/03/03 00:54:52;;;;;;;16.10;10.55;;;;;;;-3.85;100.00;93103.50;2100842;28;20017;-78
2022/03/03 00:55:53;;;;;;;15.63;10.50;;;;;;;-3.88;100.00;93106.75;2108106;28;21324;-78
2022/03/03 00:56:54;;;;;;;13.23;10.07;;;;;;;-3.88;100.00;93108.63;2096128;28;20501;-77
2022/03/03 00:57:55;;;;;;;15.57;10.93;;;;;;;-3.89;100.00;93105.25;2103075;28;20097;-79
2022/03/03 00:58:56;;;;;;;15.05;10.43;;;;;;;-3.92;100.00;93097.28;2092726;28;20451;-78
2022/03/03 00:59:57;;;;;;;14.93;10.55;;;;;;;-3.90;100.00;93110.81;2087075;28;20028;-79
2022/03/03 01:00:58;;;;;;;18.60;10.20;;;;;;;-3.83;100.00;93108.41;2084865;28;20079;-80
2022/03/03 01:01:59;;;;;;;16.15;10.60;;;;;;;-3.72;100.00;93101.66;2090466;28;20054;-79
2022/03/03 01:03:00;;;;;;;17.20;10.88;;;;;;;-3.83;100.00;93103.94;2088961;28;20016;-78
2022/03/03 01:04:01;;;;;;;17.77;10.98;;;;;;;-3.75;100.00;93102.31;2095686;28;20715;-79
2022/03/03 01:05:03;;;;;;;17.23;11.43;;;;;;;-3.74;100.00;93106.44;2104950;28;20107;-79
2022/03/03 01:06:04;;;;;;;15.70;10.93;;;;;;;-3.69;100.00;93102.84;2098141;28;20143;-79
2022/03/03 01:07:06;;;;;;;15.90;10.40;;;;;;;-3.77;100.00;93104.50;2095286;28;20016;-79
2022/03/03 01:08:10;;;;;;;16.77;10.60;;;;;;;-3.74;100.00;93109.06;2092531;28;20449;-80
2022/03/03 01:09:11;;;;;;;17.05;10.52;;;;;;;-3.74;100.00;93103.84;2094344;28;20059;-80
2022/03/03 01:10:12;;;;;;;14.07;10.00;;;;;;;-3.73;100.00;93101.97;2088818;28;20021;-78
2022/03/03 01:11:13;;;;;;;15.43;9.57;;;;;;;-3.80;100.00;93099.94;2088371;28;20440;-79
2022/03/03 01:12:14;;;;;;;17.60;11.50;;;;;;;-3.89;100.00;93100.03;2093208;28;20052;-80
2022/03/03 01:13:16;;;;;;;16.00;10.27;;;;;;;-3.95;100.00;93098.72;2098622;28;20410;-77
2022/03/03 01:14:21;;;;;;;13.90;10.52;;;;;;;-3.95;100.00;93098.72;2104973;28;20073;-81
2022/03/03 01:15:22;;;;;;;18.08;9.95;;;;;;;-3.88;100.00;93098.16;2099826;28;20080;-78
2022/03/03 01:16:23;;;;;;;14.30;9.88;;;;;;;-3.80;100.00;93089.47;2102009;28;20510;-80
2022/03/03 01:17:24;;;;;;;16.00;9.65;;;;;;;-3.87;100.00;93087.41;2105045;28;20031;-80
2022/03/03 01:18:31;;;;;;;14.95;10.55;;;;;;;-3.97;100.00;93081.84;2108022;28;20023;-77
2022/03/03 01:19:39;;;;;;;14.18;10.00;;;;;;;-4.03;100.00;93083.16;2109147;28;20023;-80
2022/03/03 01:20:47;;;;;;;12.98;10.10;;;;;;;-4.05;100.00;93088.69;2097624;28;20573;-79
2022/03/03 01:21:48;;;;;;;15.02;9.93;;;;;;;-3.99;100.00;93089.25;2108848;28;20024;-79
2022/03/03 01:22:49;;;;;;;16.00;10.40;;;;;;;-3.94;100.00;93091.66;2100552;28;20107;-80
2022/03/03 01:23:51;;;;;;;14.05;10.27;;;;;;;-3.94;100.00;93094.25;2091943;28;20082;-78
2022/03/03 01:24:53;;;;;;;13.00;9.60;;;;;;;-3.92;100.00;93087.63;2091649;28;20025;-79
2022/03/03 01:25:53;;;;;;;14.07;10.00;;;;;;;-3.93;100.00;93088.69;2105273;28;20035;-78
2022/03/03 01:26:54;;;;;;;14.85;10.85;;;;;;;-3.95;100.00;93085.66;2105370;28;20024;-79
2022/03/03 01:27:56;;;;;;;14.65;10.15;;;;;;;-3.99;100.00;93090.00;2105164;28;20454;-78
2022/03/03 01:28:56;;;;;;;16.48;10.65;;;;;;;-3.84;100.00;93086.00;2096828;28;20100;-80
2022/03/03 01:29:57;;;;;;;13.85;10.07;;;;;;;-3.92;100.00;93084.25;2105523;28;20469;-78
2022/03/03 01:30:58;;;;;;;15.45;10.38;;;;;;;-3.82;100.00;93087.19;2105770;28;20516;-79
2022/03/03 01:31:59;;;;;;;13.25;9.75;;;;;;;-3.88;100.00;93087.72;2097285;28;20027;-81
2022/03/03 01:33:01;;;;;;;12.95;9.55;;;;;;;-3.92;100.00;93087.63;2089008;28;20489;-79
2022/03/03 01:34:03;;;;;;;16.23;10.05;;;;;;;-4.02;100.00;93084.69;2097345;28;20020;-79
2022/03/03 01:35:05;;;;;;;16.88;10.38;;;;;;;-4.00;100.00;93085.09;2097568;28;20052;-80
2022/03/03 01:36:05;;;;;;;13.15;9.63;;;;;;;-4.03;100.00;93086.53;2105072;28;20114;-79
2022/03/03 01:37:07;;;;;;;15.75;10.25;;;;;;;-3.95;100.00;93080.44;2088941;28;20151;-80
2022/03/03 01:38:08;;;;;;;12.90;9.68;;;;;;;-4.00;100.00;93083.25;2089524;28;20024;-78
2022/03/03 01:39:10;;;;;;;14.13;9.45;;;;;;;-3.96;100.00;93080.75;2097448;28;20028;-79
2022/03/03 01:40:12;;;;;;;14.60;10.18;;;;;;;-4.03;100.00;93081.31;2097258;28;20020;-80
2022/03/03 01:41:13;;;;;;;16.40;10.45;;;;;;;-4.11;100.00;93082.91;2097568;28;20016;-80
2022/03/03 01:42:16;;;;;;;15.35;10.35;;;;;;;-4.10;100.00;93081.81;2095518;28;20040;-81
2022/03/03 01:43:17;;;;;;;13.90;10.07;;;;;;;-4.16;100.00;93080.53;2097963;28;20027;-77
2022/03/03 01:44:18;;;;;;;12.25;9.57;;;;;;;-4.12;100.00;93076.19;2097018;28;20491;-80
2022/03/03 01:45:19;;;;;;;14.70;9.25;;;;;;;-4.13;100.00;93077.25;2096926;28;20028;-81
2022/03/03 01:46:20;;;;;;;14.98;10.25;;;;;;;-4.07;100.00;93081.19;2096867;28;20027;-81
2022/03/03 01:47:23;;;;;;;13.48;9.70;;;;;;;-4.09;100.00;93072.16;2097261;28;20028;-79
2022/03/03 01:48:24;;;;;;;13.82;9.20;;;;;;;-4.00;100.00;93079.88;2100872;28;20112;-80
2022/03/03 01:49:26;;;;;;;12.80;9.90;;;;;;;-4.16;100.00;93071.94;2088800;28;20053;-78
2022/03/03 01:50:27;;;;;;;14.20;9.82;;;;;;;-4.18;100.00;93072.25;2104386;28;20487;-78
2022/03/03 01:51:28;;;;;;;15.25;9.07;;;;;;;-4.10;100.00;93075.84;2113805;28;20022;-79
2022/03/03 01:52:28;;;;;;;14.65;9.90;;;;;;;-4.16;100.00;93075.31;2113670;28;20470;-80
2022/03/03 01:53:29;;;;;;;16.25;10.02;;;;;;;-4.14;100.00;93065.28;2110133;28;20385;-78
2022/03/03 01:54:30;;;;;;;13.30;9.23;;;;;;;-4.17;100.00;93065.97;2112583;28;20081;-80
2022/03/03 01:55:32;;;;;;;15.25;9.38;;;;;;;-4.18;100.00;93067.03;2105685;28;20032;-78
2022/03/03 01:56:34;;;;;;;13.98;9.55;;;;;;;-4.16;100.00;93064.88;2105145;28;20024;-81
2022/03/03 01:57:35;;;;;;;13.18;9.35;;;;;;;-4.15;100.00;93063.03;2097686;28;20735;-78
2022/03/03 01:58:37;;;;;;;13.02;8.95;;;;;;;-4.13;100.00;93066.81;2100857;28;20023;-78
2022/03/03 01:59:39;;;;;;;14.20;9.43;;;;;;;-4.14;100.00;93069.75;2092799;28;20028;-79
2022/03/03 02:00:40;;;;;;;15.00;8.85;;;;;;;-4.15;100.00;93069.00;2088671;28;20082;-80
2022/03/03 02:01:42;;;;;;;14.13;9.30;;;;;;;-4.24;100.00;93059.75;2088883;28;20040;-78
2022/03/03 02:02:44;;;;;;;10.93;8.25;;;;;;;-4.22;100.00;93060.16;2089017;28;20024;-78
2022/03/03 02:03:45;;;;;;;14.93;8.70;;;;;;;-4.20;100.00;93058.00;2089410;28;20047;-81
2022/03/03 02:04:46;;;;;;;13.02;9.18;;;;;;;-4.17;100.00;93062.56;2088663;28;20458;-79
2022/03/03 02:05:48;;;;;;;13.82;9.05;;;;;;;-4.18;100.00;93067.03;2097123;28;20017;-80
2022/03/03 02:06:49;;;;;;;14.65;9.75;;;;;;;-4.23;100.00;93059.41;2097200;28;20028;-78
2022/03/03 02:07:50;;;;;;;13.55;8.75;;;;;;;-4.29;100.00;93055.50;2097349;28;20392;-79
2022/03/03 02:08:54;;;;;;;14.75;10.13;;;;;;;-4.20;100.00;93050.94;2088543;28;20052;-81
2022/03/03 02:09:55;;;;;;;16.08;10.00;;;;;;;-4.28;100.00;93057.00;2096371;28;20198;-77
2022/03/03 02:10:56;;;;;;;16.38;9.18;;;;;;;-4.28;100.00;93057.00;2105773;28;20028;-79
2022/03/03 02:11:57;;;;;;;14.73;10.27;;;;;;;-4.28;100.00;93056.25;2113208;28;20095;-78
2022/03/03 02:12:58;;;;;;;12.82;9.30;;;;;;;-4.29;100.00;93050.28;2105394;28;20020;-78
2022/03/03 02:14:01;;;;;;;14.13;9.60;;;;;;;-4.33;100.00;93049.41;2097245;28;20595;-81
2022/03/03 02:15:04;;;;;;;15.48;9.30;;;;;;;-4.31;100.00;93049.81;2105339;28;20162;-79
2022/03/03 02:16:07;;;;;;;13.63;9.70;;;;;;;-4.36;100.00;93047.44;2104547;28;20103;-80
2022/03/03 02:17:08;;;;;;;19.20;9.38;;;;;;;-4.38;100.00;93047.00;2089246;28;20484;-80
2022/03/03 02:18:09;;;;;;;13.25;9.23;;;;;;;-4.45;100.00;93041.53;2088997;28;20036;-81
2022/03/03 02:19:17;;;;;;;14.88;9.65;;;;;;;-4.43;100.00;93039.38;2097091;28;20023;-80
2022/03/03 02:20:19;;;;;;;15.88;9.85;;;;;;;-4.45;100.00;93039.69;2098998;28;20029;-78
2022/03/03 02:21:21;;;;;;;14.05;9.80;;;;;;;-4.39;100.00;93035.81;2096758;28;20025;-80
2022/03/03 02:22:22;;;;;;;13.73;9.70;;;;;;;-4.38;100.00;93031.34;2088887;28;20054;-78
2022/03/03 02:23:23;;;;;;;13.38;9.18;;;;;;;-4.38;100.00;93041.78;2083077;28;20419;-81
2022/03/03 02:24:24;;;;;;;12.70;8.88;;;;;;;-4.41;100.00;93034.59;2085541;28;20057;-80
2022/03/03 02:25:26;;;;;;;13.35;9.00;;;;;;;-4.42;100.00;93035.69;2088848;28;20028;-82
2022/03/03 02:26:27;;;;;;;13.98;9.60;;;;;;;-4.45;100.00;93036.34;2088917;28;20025;-77
2022/03/03 02:27:28;;;;;;;12.32;8.77;;;;;;;-4.41;100.00;93035.34;2088932;28;20037;-81
2022/03/03 02:28:29;;;;;;;15.43;10.07;;;;;;;-4.46;100.00;93032.19;2088958;28;20113;-78
2022/03/03 02:29:31;;;;;;;14.30;9.27;;;;;;;-4.41;100.00;93026.78;2097007;28;20684;-78
2022/03/03 02:30:32;;;;;;;15.48;9.25;;;;;;;-4.41;100.00;93022.31;2105040;28;20039;-78
2022/03/03 02:31:33;;;;;;;14.75;9.23;;;;;;;-4.44;100.00;93030.78;2101213;28;20016;-78
2022/03/03 02:32:34;;;;;;;14.23;9.15;;;;;;;-4.45;100.00;93029.25;2097056;28;20052;-80
2022/03/03 02:33:35;;;;;;;12.90;9.10;;;;;;;-4.47;100.00;93031.44;2084260;28;20414;-81
2022/03/03 02:34:36;;;;;;;15.32;9.52;;;;;;;-4.52;100.00;93026.44;2089051;28;20555;-78
2022/03/03 02:35:43;;;;;;;14.57;9.85;;;;;;;-4.45;100.00;93025.91;2104796;28;20057;-80
2022/03/03 02:36:44;;;;;;;15.07;9.43;;;;;;;-4.44;100.00;93024.81;2090536;28;20017;-78
2022/03/03 02:37:46;;;;;;;14.93;9.25;;;;;;;-4.43;100.00;93026.34;2097208;28;20997;-78
2022/03/03 02:38:49;;;;;;;13.88;9.63;;;;;;;-4.46;100.00;93025.13;2097227;28;20027;-78
2022/03/03 02:39:50;;;;;;;15.18;9.30;;;;;;;-4.47;100.00;93030.69;2097165;28;20032;-80
2022/03/03 02:40:51;;;;;;;15.98;9.77;;;;;;;-4.46;100.00;93029.59;2098745;28;20556;-78
2022/03/03 02:41:52;;;;;;;13.55;9.52;;;;;;;-4.41;100.00;93022.31;2105168;28;20024;-79
2022/03/03 02:42:54;;;;;;;12.48;9.18;;;;;;;-4.40;100.00;93023.06;2103770;28;20102;-79
2022/03/03 02:43:57;;;;;;;13.10;8.57;;;;;;;-4.40;100.00;93021.22;2105617;28;20098;-79
2022/03/03 02:44:58;;;;;;;14.50;10.68;;;;;;;-4.46;100.00;93027.75;2105475;28;20023;-80
2022/03/03 02:45:58;;;;;;;14.65;9.23;;;;;;;-4.44;100.00;93027.41;2088774;28;20174;-78
2022/03/03 02:46:59;;;;;;;12.15;8.27;;;;;;;-4.45;100.00;93025.91;2088703;28;20052;-79
2022/03/03 02:48:00;;;;;;;12.93;9.25;;;;;;;-4.46;100.00;93019.16;2096681;28;20209;-80
2022/03/03 02:49:01;;;;;;;13.13;8.88;;;;;;;-4.49;100.00;93022.41;2096858;28;20027;-81
2022/03/03 02:50:02;;;;;;;18.80;9.93;;;;;;;-4.50;100.00;93015.69;2096976;28;20021;-79
2022/03/03 02:51:05;;;;;;;13.00;9.23;;;;;;;-4.47;100.00;93020.25;2097015;28;20086;-80
2022/03/03 02:52:06;;;;;;;15.05;9.93;;;;;;;-4.41;100.00;93019.72;2088867;28;20549;-79
2022/03/03 02:53:07;;;;;;;12.60;8.25;;;;;;;-4.49;100.00;93020.56;2088444;28;20028;-82
2022/03/03 02:54:08;;;;;;;13.15;8.70;;;;;;;-4.50;100.00;93024.25;2088706;28;20111;-79
2022/03/03 02:55:10;;;;;;;15.65;10.13;;;;;;;-4.59;100.00;93021.75;2088732;28;20120;-80
2022/03/03 02:56:12;;;;;;;14.25;9.63;;;;;;;-4.68;100.00;93015.09;2088949;28;20482;-79
2022/03/03 02:58:33;;;;;;;11.38;8.93;;;;;;;-4.66;100.00;93015.53;2105641;28;20115;-79
2022/03/03 02:59:34;;;;;;;12.10;8.93;;;;;;;-4.63;100.00;93018.25;2105199;28;20115;-78
2022/03/03 03:00:42;;;;;;;14.98;9.70;;;;;;;-4.64;100.00;93016.75;2088311;28;20028;-82
2022/03/03 03:01:43;;;;;;;11.77;8.70;;;;;;;-4.61;100.00;93021.31;2090750;28;20036;-83
2022/03/03 03:02:44;;;;;;;16.48;9.07;;;;;;;-4.59;100.00;93026.19;2088726;28;20428;-82
2022/03/03 03:03:45;;;;;;;13.55;9.07;;;;;;;-4.61;100.00;93017.91;2080400;28;20053;-79
2022/03/03 03:04:46;;;;;;;14.10;9.40;;;;;;;-4.59;100.00;93018.38;2088530;28;20116;-80
2022/03/03 03:05:48;;;;;;;12.02;8.80;;;;;;;-4.63;100.00;93013.03;2097371;28;20485;-79
2022/03/03 03:06:48;;;;;;;14.02;9.40;;;;;;;-4.69;100.00;93021.41;2106856;28;20027;-79
2022/03/03 03:07:50;;;;;;;13.65;9.45;;;;;;;-4.72;100.00;93016.81;2113843;28;20020;-80
2022/03/03 03:08:51;;;;;;;14.68;9.38;;;;;;;-4.72;100.00;93014.22;2115305;28;20028;-80
2022/03/03 03:09:52;;;;;;;13.52;9.68;;;;;;;-4.72;100.00;93014.97;2098369;28;20037;-82
2022/03/03 03:10:53;;;;;;;14.40;9.63;;;;;;;-4.77;100.00;93015.19;2106847;28;20051;-80
2022/03/03 03:11:54;;;;;;;12.88;9.35;;;;;;;-4.73;100.00;93018.66;2114545;28;20491;-80
2022/03/03 03:12:55;;;;;;;17.35;9.80;;;;;;;-4.71;100.00;93013.88;2115233;28;20031;-79
2022/03/03 03:13:55;;;;;;;14.55;9.40;;;;;;;-4.75;100.00;93023.44;2114900;28;20091;-77
2022/03/03 03:14:57;;;;;;;13.20;9.27;;;;;;;-4.75;100.00;93014.84;2098430;28;20031;-82
2022/03/03 03:15:58;;;;;;;14.50;9.13;;;;;;;-4.79;100.00;93027.00;2097975;28;20051;-79
2022/03/03 03:17:01;;;;;;;16.85;9.18;;;;;;;-4.79;100.00;93009.50;2098346;28;20036;-79
2022/03/03 03:18:09;;;;;;;16.77;9.32;;;;;;;-4.82;100.00;93013.53;2090471;28;20501;-79
2022/03/03 03:19:10;;;;;;;13.50;9.20;;;;;;;-4.81;100.00;93022.13;2092257;28;20017;-79
2022/03/03 03:20:12;;;;;;;17.50;8.75;;;;;;;-4.75;100.00;93018.22;2090087;28;20028;-80
2022/03/03 03:21:12;;;;;;;12.35;8.80;;;;;;;-4.82;100.00;93018.00;2090359;28;20817;-81
2022/03/03 03:22:13;;;;;;;15.95;9.32;;;;;;;-4.84;100.00;93017.53;2106775;28;20028;-81
2022/03/03 03:23:16;;;;;;;12.65;8.95;;;;;;;-4.74;100.00;93016.38;2106651;28;20107;-80
2022/03/03 03:24:17;;;;;;;13.90;8.95;;;;;;;-4.80;100.00;93023.63;2090200;28;20024;-81
2022/03/03 03:25:18;;;;;;;12.90;8.77;;;;;;;-4.77;100.00;93024.84;2090070;28;20513;-81
2022/03/03 03:26:19;;;;;;;12.85;9.00;;;;;;;-4.72;100.00;93014.22;2090059;28;20477;-80
2022/03/03 03:27:20;;;;;;;15.23;9.30;;;;;;;-4.77;100.00;93017.03;2090238;28;20020;-81
2022/03/03 03:28:21;;;;;;;12.73;9.15;;;;;;;-4.78;100.00;93013.66;2100764;28;20043;-80
2022/03/03 03:29:22;;;;;;;16.25;9.57;;;;;;;-4.77;100.00;93022.25;2114975;28;20090;-81
2022/03/03 03:30:23;;;;;;;13.38;9.43;;;;;;;-4.79;100.00;93017.34;2106557;28;20027;-79
2022/03/03 03:31:24;;;;;;;13.57;8.65;;;;;;;-4.81;100.00;93015.06;2098135;28;20453;-78
2022/03/03 03:32:25;;;;;;;16.73;9.02;;;;;;;-4.82;100.00;93012.78;2098279;28;20092;-79
2022/03/03 03:33:26;;;;;;;12.13;8.55;;;;;;;-4.84;100.00;93014.94;2089948;28;20417;-79
2022/03/03 03:34:26;;;;;;;11.73;8.63;;;;;;;-4.90;100.00;93018.84;2087892;28;20050;-81
2022/03/03 03:35:27;;;;;;;12.80;8.82;;;;;;;-4.90;100.00;93014.38;2094913;28;20025;-80
2022/03/03 03:36:28;;;;;;;10.95;8.60;;;;;;;-4.81;100.00;93014.28;2089535;28;20121;-79
2022/03/03 03:37:31;;;;;;;10.98;8.50;;;;;;;-4.89;100.00;93018.50;2089392;28;20017;-78
2022/03/03 03:38:32;;;;;;;14.02;8.52;;;;;;;-4.78;100.00;93021.50;2082598;28;20029;-81
2022/03/03 03:39:33;;;;;;;13.73;8.95;;;;;;;-4.72;100.00;93016.81;2081818;28;20029;-81
2022/03/03 03:40:35;;;;;;;12.23;8.95;;;;;;;-4.76;100.00;93019.31;2089971;28;20481;-78
2022/03/03 03:41:36;;;;;;;13.85;9.43;;;;;;;-4.84;100.00;93015.69;2101941;28;20023;-80
2022/03/03 03:42:36;;;;;;;12.10;9.02;;;;;;;-4.83;100.00;93014.63;2090178;28;20389;-77
2022/03/03 03:43:38;;;;;;;14.80;9.65;;;;;;;-4.71;100.00;93015.72;2089832;28;20044;-81
2022/03/03 03:44:39;;;;;;;13.35;8.25;;;;;;;-4.77;100.00;93012.56;2106936;28;20023;-80
2022/03/03 03:45:40;;;;;;;13.35;9.27;;;;;;;-4.78;100.00;93021.50;2106593;28;20016;-81
2022/03/03 03:46:41;;;;;;;12.55;8.65;;;;;;;-4.79;100.00;93012.13;2106361;28;20401;-78
2022/03/03 03:47:42;;;;;;;12.68;8.70;;;;;;;-4.71;100.00;93008.66;2105350;28;20105;-81
2022/03/03 03:48:43;;;;;;;12.35;8.50;;;;;;;-4.70;100.00;93010.19;2106506;28;20020;-79
2022/03/03 03:49:44;;;;;;;13.70;8.75;;;;;;;-4.72;100.00;93001.94;2098185;28;20090;-78
2022/03/03 03:50:45;;;;;;;13.30;8.82;;;;;;;-4.72;100.00;93012.38;2099045;28;20044;-79
2022/03/03 03:51:46;;;;;;;14.23;9.10;;;;;;;-4.67;100.00;93009.53;2098170;28;20104;-80
2022/03/03 03:52:47;;;;;;;16.02;9.13;;;;;;;-4.75;100.00;93005.19;2098039;28;20111;-78
2022/03/03 03:53:47;;;;;;;14.35;8.77;;;;;;;-4.72;100.00;93006.41;2098183;28;20401;-81
2022/03/03 03:54:48;;;;;;;12.55;8.93;;;;;;;-4.66;100.00;93008.47;2115054;28;20027;-81
2022/03/03 03:55:50;;;;;;;14.15;8.68;;;;;;;-4.69;100.00;93006.50;2115115;28;20486;-78
2022/03/03 03:56:51;;;;;;;14.38;9.27;;;;;;;-4.68;100.00;93012.50;2105587;28;20061;-78
2022/03/03 03:57:58;;;;;;;13.35;8.43;;;;;;;-4.59;100.00;93011.31;2114866;28;20501;-78
2022/03/03 03:58:59;;;;;;;14.98;9.77;;;;;;;-4.68;100.00;93004.66;2122481;27;20031;-80
2022/03/03 04:00:00;;;;;;;12.48;9.05;;;;;;;-4.79;100.00;93003.53;2105877;28;20778;-81
2022/03/03 04:01:01;;;;;;;11.45;9.02;;;;;;;-4.85;100.00;93008.19;2106115;28;20016;-79
2022/03/03 04:02:03;;;;;;;13.45;8.85;;;;;;;-4.85;100.00;93003.00;2089744;28;20024;-81
2022/03/03 04:03:03;;;;;;;13.85;8.98;;;;;;;-4.87;100.00;93005.94;2089950;28;20036;-80
2022/03/03 04:04:04;;;;;;;13.93;9.20;;;;;;;-4.82;100.00;93007.56;2097522;28;20025;-81
2022/03/03 04:05:06;;;;;;;12.20;8.57;;;;;;;-4.83;100.00;93008.63;2098104;28;20588;-79
2022/03/03 04:06:06;;;;;;;15.82;9.57;;;;;;;-4.92;100.00;93008.72;2101872;28;20376;-79
2022/03/03 04:07:07;;;;;;;13.30;8.88;;;;;;;-4.86;100.00;93001.47;2089840;28;20027;-80
2022/03/03 04:08:08;;;;;;;13.52;9.65;;;;;;;-4.90;100.00;92998.75;2098017;28;20089;-79
2022/03/03 04:09:09;;;;;;;13.50;9.20;;;;;;;-4.94;100.00;93005.69;2089663;28;20108;-80
2022/03/03 04:10:11;;;;;;;15.20;8.55;;;;;;;-4.92;100.00;92997.53;2103121;28;20046;-80
2022/03/03 04:11:12;;;;;;;14.60;9.07;;;;;;;-4.99;100.00;92995.47;2097887;28;20017;-81
2022/03/03 04:12:13;;;;;;;14.10;9.13;;;;;;;-4.91;100.00;92994.63;2090454;28;20366;-79
2022/03/03 04:13:15;;;;;;;12.68;9.23;;;;;;;-4.89;100.00;92991.69;2106451;28;20799;-79
2022/03/03 04:14:16;;;;;;;14.45;8.85;;;;;;;-4.91;100.00;92992.00;2089979;28;20025;-80
2022/03/03 04:15:17;;;;;;;12.20;8.85;;;;;;;-4.90;100.00;92987.56;2083597;28;20022;-81
2022/03/03 04:16:18;;;;;;;12.15;8.55;;;;;;;-4.94;100.00;92987.44;2089727;28;20845;-79
2022/03/03 04:17:19;;;;;;;14.27;8.52;;;;;;;-4.95;100.00;92990.38;2097428;28;20078;-79
2022/03/03 04:18:25;;;;;;;14.73;8.40;;;;;;;-4.88;100.00;92985.38;2104066;28;20163;-78
2022/03/03 04:19:26;;;;;;;12.00;8.38;;;;;;;-4.94;100.00;92984.06;2106369;28;20028;-78
2022/03/03 04:20:27;;;;;;;11.75;8.50;;;;;;;-4.88;100.00;92980.16;2097883;28;20020;-79
2022/03/03 04:21:31;;;;;;;12.40;8.82;;;;;;;-4.85;100.00;92979.53;2097280;28;20059;-80
2022/03/03 04:22:32;;;;;;;11.55;7.97;;;;;;;-4.98;100.00;92975.38;2098714;28;20377;-79
2022/03/03 04:23:34;;;;;;;11.77;7.88;;;;;;;-5.00;100.00;92975.69;2105928;28;20123;-77
2022/03/03 04:24:35;;;;;;;13.73;8.15;;;;;;;-4.98;100.00;92985.78;2097706;28;20028;-80
2022/03/03 04:25:36;;;;;;;12.95;8.35;;;;;;;-5.00;100.00;92983.53;2097967;28;20485;-79
2022/03/03 04:26:37;;;;;;;13.60;8.30;;;;;;;-4.96;100.00;92988.81;2106324;28;20134;-79
2022/03/03 04:27:39;;;;;;;10.95;7.80;;;;;;;-4.96;100.00;92987.00;2097877;28;20038;-80
2022/03/03 04:28:40;;;;;;;12.55;8.13;;;;;;;-4.93;100.00;92986.34;2089626;28;20029;-80
2022/03/03 04:29:42;;;;;;;13.10;8.75;;;;;;;-4.91;100.00;92986.81;2089733;28;20028;-80
2022/03/03 04:30:42;;;;;;;12.23;8.35;;;;;;;-4.87;100.00;92985.06;2089852;28;20524;-80
2022/03/03 04:31:43;;;;;;;12.10;8.85;;;;;;;-4.93;100.00;92985.59;2099205;28;20029;-79
2022/03/03 04:32:44;;;;;;;12.77;8.60;;;;;;;-4.98;100.00;92983.94;2114665;28;20031;-78
2022/03/03 04:33:46;;;;;;;13.35;8.23;;;;;;;-5.05;100.00;92983.69;2104524;28;20895;-79
2022/03/03 04:34:47;;;;;;;10.63;7.82;;;;;;;-5.06;100.00;92984.78;2097983;28;20090;-81
2022/03/03 04:35:48;;;;;;;13.15;8.77;;;;;;;-5.07;100.00;92983.25;2099323;28;20033;-78
2022/03/03 04:36:49;;;;;;;14.00;8.15;;;;;;;-5.06;100.00;92987.38;2106132;28;20392;-81
2022/03/03 04:37:50;;;;;;;13.93;8.68;;;;;;;-5.06;100.00;92990.00;2114620;28;20027;-80
2022/03/03 04:39:01;;;;;;;13.82;8.27;;;;;;;-5.11;100.00;92987.59;2114559;28;20119;-78
2022/03/03 04:40:03;;;;;;;13.38;8.13;;;;;;;-5.13;100.00;92987.16;2106099;28;20135;-80
2022/03/03 04:41:04;;;;;;;12.13;8.52;;;;;;;-5.19;100.00;92988.44;2098379;28;20032;-81
2022/03/03 04:42:05;;;;;;;11.48;7.65;;;;;;;-5.10;100.00;92989.09;2097736;28;20052;-80
2022/03/03 04:43:06;;;;;;;13.82;7.72;;;;;;;-5.04;100.00;92989.69;2098077;28;20036;-79